sensor_id;sensor_type;location;lat;lon;timestamp;P1;durP1;ratioP1;P2;durP2;ratioP2
37203;SDS011;23098;48.054;10.636;2023-04-06T00:01:00;22.98;;;11.13;;
37203;SDS011;23098;48.054;10.636;2023-04-06T00:03:26;22.85;;;10.68;;
37203;SDS011;23098;48.054;10.636;2023-04-06T00:05:51;20.52;;;10.75;;
37203;SDS011;23098;48.054;10.636;2023-04-06T00:08:17;18.77;;;10.63;;
37203;SDS011;23098;48.054;10.636;2023-04-06T00:10:43;18.98;;;11.07;;
37203;SDS011;23098;48.054;10.636;2023-04-06T00:13:08;16.98;;;10.55;;
37203;SDS011;23098;48.054;10.636;2023-04-06T00:15:34;17.08;;;10.52;;
37203;SDS011;23098;48.054;10.636;2023-04-06T00:18:00;18.17;;;11.00;;
37203;SDS011;23098;48.054;10.636;2023-04-06T00:20:25;21.95;;;11.15;;
37203;SDS011;23098;48.054;10.636;2023-04-06T00:22:51;18.48;;;10.52;;
37203;SDS011;23098;48.054;10.636;2023-04-06T00:25:17;18.50;;;10.50;;
37203;SDS011;23098;48.054;10.636;2023-04-06T00:27:44;19.02;;;11.18;;
37203;SDS011;23098;48.054;10.636;2023-04-06T00:30:10;19.38;;;10.75;;
37203;SDS011;23098;48.054;10.636;2023-04-06T00:32:37;25.35;;;10.15;;
37203;SDS011;23098;48.054;10.636;2023-04-06T00:35:04;18.77;;;10.43;;
37203;SDS011;23098;48.054;10.636;2023-04-06T00:37:31;18.83;;;11.32;;
37203;SDS011;23098;48.054;10.636;2023-04-06T00:39:57;18.23;;;10.75;;
37203;SDS011;23098;48.054;10.636;2023-04-06T00:42:23;23.02;;;10.30;;
37203;SDS011;23098;48.054;10.636;2023-04-06T00:44:56;19.02;;;10.77;;
37203;SDS011;23098;48.054;10.636;2023-04-06T00:47:23;17.23;;;10.55;;
37203;SDS011;23098;48.054;10.636;2023-04-06T00:49:50;17.42;;;9.73;;
37203;SDS011;23098;48.054;10.636;2023-04-06T00:52:17;19.35;;;10.70;;
37203;SDS011;23098;48.054;10.636;2023-04-06T00:54:43;22.65;;;10.68;;
37203;SDS011;23098;48.054;10.636;2023-04-06T00:57:09;20.38;;;10.23;;
37203;SDS011;23098;48.054;10.636;2023-04-06T00:59:36;17.75;;;10.20;;
37203;SDS011;23098;48.054;10.636;2023-04-06T01:02:02;16.67;;;9.55;;
37203;SDS011;23098;48.054;10.636;2023-04-06T01:04:28;19.65;;;10.88;;
37203;SDS011;23098;48.054;10.636;2023-04-06T01:06:53;16.05;;;10.32;;
37203;SDS011;23098;48.054;10.636;2023-04-06T01:09:19;18.90;;;10.25;;
37203;SDS011;23098;48.054;10.636;2023-04-06T01:11:44;16.45;;;10.43;;
37203;SDS011;23098;48.054;10.636;2023-04-06T01:14:10;23.75;;;10.38;;
37203;SDS011;23098;48.054;10.636;2023-04-06T01:16:36;20.10;;;10.95;;
37203;SDS011;23098;48.054;10.636;2023-04-06T01:19:11;20.63;;;11.18;;
37203;SDS011;23098;48.054;10.636;2023-04-06T01:21:37;18.75;;;10.98;;
37203;SDS011;23098;48.054;10.636;2023-04-06T01:24:04;18.00;;;10.52;;
37203;SDS011;23098;48.054;10.636;2023-04-06T01:26:31;17.80;;;10.43;;
37203;SDS011;23098;48.054;10.636;2023-04-06T01:28:57;19.02;;;11.23;;
37203;SDS011;23098;48.054;10.636;2023-04-06T01:31:23;19.38;;;10.48;;
37203;SDS011;23098;48.054;10.636;2023-04-06T01:33:48;17.58;;;10.32;;
37203;SDS011;23098;48.054;10.636;2023-04-06T01:36:14;20.25;;;11.25;;
37203;SDS011;23098;48.054;10.636;2023-04-06T01:38:40;19.42;;;10.68;;
37203;SDS011;23098;48.054;10.636;2023-04-06T01:41:06;21.42;;;11.30;;
37203;SDS011;23098;48.054;10.636;2023-04-06T01:43:32;22.20;;;11.10;;
37203;SDS011;23098;48.054;10.636;2023-04-06T01:45:58;19.63;;;10.98;;
37203;SDS011;23098;48.054;10.636;2023-04-06T01:48:25;20.05;;;11.30;;
37203;SDS011;23098;48.054;10.636;2023-04-06T01:50:51;17.98;;;10.63;;
37203;SDS011;23098;48.054;10.636;2023-04-06T01:53:17;18.55;;;10.93;;
37203;SDS011;23098;48.054;10.636;2023-04-06T01:55:42;19.17;;;11.43;;
37203;SDS011;23098;48.054;10.636;2023-04-06T01:58:08;20.15;;;11.68;;
37203;SDS011;23098;48.054;10.636;2023-04-06T02:00:34;17.80;;;10.90;;
37203;SDS011;23098;48.054;10.636;2023-04-06T02:03:00;20.45;;;10.95;;
37203;SDS011;23098;48.054;10.636;2023-04-06T02:05:25;17.05;;;10.80;;
37203;SDS011;23098;48.054;10.636;2023-04-06T02:07:51;17.58;;;10.63;;
37203;SDS011;23098;48.054;10.636;2023-04-06T02:10:17;20.60;;;11.30;;
37203;SDS011;23098;48.054;10.636;2023-04-06T02:12:43;17.58;;;10.88;;
37203;SDS011;23098;48.054;10.636;2023-04-06T02:15:08;19.23;;;11.65;;
37203;SDS011;23098;48.054;10.636;2023-04-06T02:17:34;17.35;;;10.73;;
37203;SDS011;23098;48.054;10.636;2023-04-06T02:20:00;21.02;;;11.23;;
37203;SDS011;23098;48.054;10.636;2023-04-06T02:22:26;16.52;;;10.00;;
37203;SDS011;23098;48.054;10.636;2023-04-06T02:24:52;21.48;;;11.57;;
37203;SDS011;23098;48.054;10.636;2023-04-06T02:27:18;19.13;;;11.48;;
37203;SDS011;23098;48.054;10.636;2023-04-06T02:29:43;17.00;;;10.68;;
37203;SDS011;23098;48.054;10.636;2023-04-06T02:32:09;17.45;;;10.85;;
37203;SDS011;23098;48.054;10.636;2023-04-06T02:34:35;19.73;;;11.23;;
37203;SDS011;23098;48.054;10.636;2023-04-06T02:37:00;20.23;;;11.23;;
37203;SDS011;23098;48.054;10.636;2023-04-06T02:39:26;20.15;;;11.32;;
37203;SDS011;23098;48.054;10.636;2023-04-06T02:41:51;17.52;;;10.57;;
37203;SDS011;23098;48.054;10.636;2023-04-06T02:44:16;19.23;;;11.25;;
37203;SDS011;23098;48.054;10.636;2023-04-06T02:46:43;18.77;;;10.90;;
37203;SDS011;23098;48.054;10.636;2023-04-06T02:49:08;22.05;;;11.25;;
37203;SDS011;23098;48.054;10.636;2023-04-06T02:51:34;22.35;;;12.27;;
37203;SDS011;23098;48.054;10.636;2023-04-06T02:53:59;19.70;;;11.73;;
37203;SDS011;23098;48.054;10.636;2023-04-06T02:56:25;19.02;;;11.00;;
37203;SDS011;23098;48.054;10.636;2023-04-06T02:58:51;20.52;;;10.90;;
37203;SDS011;23098;48.054;10.636;2023-04-06T03:01:16;17.58;;;10.35;;
37203;SDS011;23098;48.054;10.636;2023-04-06T03:03:43;17.02;;;10.40;;
37203;SDS011;23098;48.054;10.636;2023-04-06T03:06:09;19.20;;;10.52;;
37203;SDS011;23098;48.054;10.636;2023-04-06T03:08:35;16.50;;;10.43;;
37203;SDS011;23098;48.054;10.636;2023-04-06T03:11:00;22.77;;;11.25;;
37203;SDS011;23098;48.054;10.636;2023-04-06T03:13:26;19.48;;;11.82;;
37203;SDS011;23098;48.054;10.636;2023-04-06T03:15:51;23.17;;;13.88;;
37203;SDS011;23098;48.054;10.636;2023-04-06T03:18:20;21.92;;;12.55;;
37203;SDS011;23098;48.054;10.636;2023-04-06T03:20:48;21.52;;;12.73;;
37203;SDS011;23098;48.054;10.636;2023-04-06T03:23:13;19.30;;;11.57;;
37203;SDS011;23098;48.054;10.636;2023-04-06T03:25:39;17.23;;;11.10;;
37203;SDS011;23098;48.054;10.636;2023-04-06T03:28:04;20.17;;;12.10;;
37203;SDS011;23098;48.054;10.636;2023-04-06T03:30:30;21.33;;;11.48;;
37203;SDS011;23098;48.054;10.636;2023-04-06T03:32:55;17.08;;;10.18;;
37203;SDS011;23098;48.054;10.636;2023-04-06T03:35:21;21.38;;;10.95;;
37203;SDS011;23098;48.054;10.636;2023-04-06T03:37:46;17.98;;;10.75;;
37203;SDS011;23098;48.054;10.636;2023-04-06T03:40:12;19.10;;;11.07;;
37203;SDS011;23098;48.054;10.636;2023-04-06T03:42:37;18.30;;;9.93;;
37203;SDS011;23098;48.054;10.636;2023-04-06T03:45:03;17.88;;;11.00;;
37203;SDS011;23098;48.054;10.636;2023-04-06T03:47:29;16.75;;;10.38;;
37203;SDS011;23098;48.054;10.636;2023-04-06T03:49:54;20.05;;;11.57;;
37203;SDS011;23098;48.054;10.636;2023-04-06T03:52:20;19.13;;;10.63;;
37203;SDS011;23098;48.054;10.636;2023-04-06T03:54:47;17.10;;;10.68;;
37203;SDS011;23098;48.054;10.636;2023-04-06T03:57:19;18.70;;;11.07;;
37203;SDS011;23098;48.054;10.636;2023-04-06T03:59:44;16.75;;;9.93;;
37203;SDS011;23098;48.054;10.636;2023-04-06T04:02:10;19.27;;;10.43;;
37203;SDS011;23098;48.054;10.636;2023-04-06T04:04:35;26.60;;;13.00;;
37203;SDS011;23098;48.054;10.636;2023-04-06T04:07:01;19.17;;;11.32;;
37203;SDS011;23098;48.054;10.636;2023-04-06T04:09:26;19.17;;;11.10;;
37203;SDS011;23098;48.054;10.636;2023-04-06T04:11:52;22.30;;;11.88;;
37203;SDS011;23098;48.054;10.636;2023-04-06T04:14:17;18.30;;;11.32;;
37203;SDS011;23098;48.054;10.636;2023-04-06T04:16:43;20.48;;;11.10;;
37203;SDS011;23098;48.054;10.636;2023-04-06T04:19:08;22.40;;;10.52;;
37203;SDS011;23098;48.054;10.636;2023-04-06T04:21:41;19.05;;;11.13;;
37203;SDS011;23098;48.054;10.636;2023-04-06T04:24:09;24.15;;;11.10;;
37203;SDS011;23098;48.054;10.636;2023-04-06T04:26:34;18.67;;;10.30;;
37203;SDS011;23098;48.054;10.636;2023-04-06T04:29:00;19.80;;;10.43;;
37203;SDS011;23098;48.054;10.636;2023-04-06T04:31:25;18.25;;;11.18;;
37203;SDS011;23098;48.054;10.636;2023-04-06T04:33:51;17.00;;;10.48;;
37203;SDS011;23098;48.054;10.636;2023-04-06T04:36:16;18.83;;;11.05;;
37203;SDS011;23098;48.054;10.636;2023-04-06T04:38:42;17.52;;;10.63;;
37203;SDS011;23098;48.054;10.636;2023-04-06T04:41:07;20.17;;;11.23;;
37203;SDS011;23098;48.054;10.636;2023-04-06T04:43:33;15.73;;;10.38;;
37203;SDS011;23098;48.054;10.636;2023-04-06T04:45:58;17.40;;;10.55;;
37203;SDS011;23098;48.054;10.636;2023-04-06T04:48:24;19.90;;;10.95;;
37203;SDS011;23098;48.054;10.636;2023-04-06T04:50:50;18.65;;;11.13;;
37203;SDS011;23098;48.054;10.636;2023-04-06T04:53:15;18.65;;;11.20;;
37203;SDS011;23098;48.054;10.636;2023-04-06T04:55:41;19.63;;;11.57;;
37203;SDS011;23098;48.054;10.636;2023-04-06T04:58:06;19.02;;;11.75;;
37203;SDS011;23098;48.054;10.636;2023-04-06T05:00:34;18.55;;;12.20;;
37203;SDS011;23098;48.054;10.636;2023-04-06T05:02:59;21.85;;;12.98;;
37203;SDS011;23098;48.054;10.636;2023-04-06T05:05:25;19.85;;;12.55;;
37203;SDS011;23098;48.054;10.636;2023-04-06T05:07:50;21.40;;;13.13;;
37203;SDS011;23098;48.054;10.636;2023-04-06T05:10:16;18.75;;;11.55;;
37203;SDS011;23098;48.054;10.636;2023-04-06T05:12:42;18.95;;;11.02;;
37203;SDS011;23098;48.054;10.636;2023-04-06T05:15:07;15.88;;;9.98;;
37203;SDS011;23098;48.054;10.636;2023-04-06T05:17:34;17.73;;;10.55;;
37203;SDS011;23098;48.054;10.636;2023-04-06T05:19:59;16.73;;;10.10;;
37203;SDS011;23098;48.054;10.636;2023-04-06T05:22:25;15.85;;;9.60;;
37203;SDS011;23098;48.054;10.636;2023-04-06T05:24:51;16.35;;;9.93;;
37203;SDS011;23098;48.054;10.636;2023-04-06T05:27:16;18.13;;;9.88;;
37203;SDS011;23098;48.054;10.636;2023-04-06T05:29:42;17.10;;;10.07;;
37203;SDS011;23098;48.054;10.636;2023-04-06T05:32:07;18.48;;;10.55;;
37203;SDS011;23098;48.054;10.636;2023-04-06T05:34:33;15.77;;;9.63;;
37203;SDS011;23098;48.054;10.636;2023-04-06T05:36:59;20.25;;;10.60;;
37203;SDS011;23098;48.054;10.636;2023-04-06T05:39:24;15.15;;;8.82;;
37203;SDS011;23098;48.054;10.636;2023-04-06T05:41:50;15.57;;;9.65;;
37203;SDS011;23098;48.054;10.636;2023-04-06T05:44:16;17.13;;;9.77;;
37203;SDS011;23098;48.054;10.636;2023-04-06T05:46:41;16.15;;;9.63;;
37203;SDS011;23098;48.054;10.636;2023-04-06T05:49:07;18.42;;;11.13;;
37203;SDS011;23098;48.054;10.636;2023-04-06T05:51:32;14.90;;;9.80;;
37203;SDS011;23098;48.054;10.636;2023-04-06T05:53:58;15.25;;;9.18;;
37203;SDS011;23098;48.054;10.636;2023-04-06T05:56:24;16.08;;;9.48;;
37203;SDS011;23098;48.054;10.636;2023-04-06T05:58:50;17.27;;;9.10;;
37203;SDS011;23098;48.054;10.636;2023-04-06T06:01:15;17.63;;;10.80;;
37203;SDS011;23098;48.054;10.636;2023-04-06T06:03:41;18.58;;;10.35;;
37203;SDS011;23098;48.054;10.636;2023-04-06T06:06:07;15.23;;;9.50;;
37203;SDS011;23098;48.054;10.636;2023-04-06T06:08:32;14.90;;;9.98;;
37203;SDS011;23098;48.054;10.636;2023-04-06T06:10:58;19.17;;;11.05;;
37203;SDS011;23098;48.054;10.636;2023-04-06T06:13:23;15.85;;;9.82;;
37203;SDS011;23098;48.054;10.636;2023-04-06T06:15:49;12.00;;;8.40;;
37203;SDS011;23098;48.054;10.636;2023-04-06T06:18:15;18.20;;;8.38;;
37203;SDS011;23098;48.054;10.636;2023-04-06T06:20:41;12.55;;;8.10;;
37203;SDS011;23098;48.054;10.636;2023-04-06T06:23:06;14.27;;;8.88;;
37203;SDS011;23098;48.054;10.636;2023-04-06T06:25:32;12.82;;;9.00;;
37203;SDS011;23098;48.054;10.636;2023-04-06T06:27:58;15.13;;;9.40;;
37203;SDS011;23098;48.054;10.636;2023-04-06T06:30:24;13.73;;;9.82;;
37203;SDS011;23098;48.054;10.636;2023-04-06T06:32:50;16.10;;;9.27;;
37203;SDS011;23098;48.054;10.636;2023-04-06T06:35:16;16.15;;;10.50;;
37203;SDS011;23098;48.054;10.636;2023-04-06T06:37:41;21.50;;;11.98;;
37203;SDS011;23098;48.054;10.636;2023-04-06T06:40:08;14.43;;;9.52;;
37203;SDS011;23098;48.054;10.636;2023-04-06T06:42:35;16.67;;;9.90;;
37203;SDS011;23098;48.054;10.636;2023-04-06T06:45:00;26.63;;;12.25;;
37203;SDS011;23098;48.054;10.636;2023-04-06T06:47:26;13.70;;;8.77;;
37203;SDS011;23098;48.054;10.636;2023-04-06T06:49:53;12.90;;;8.95;;
37203;SDS011;23098;48.054;10.636;2023-04-06T06:52:18;15.63;;;9.70;;
37203;SDS011;23098;48.054;10.636;2023-04-06T06:54:44;15.20;;;9.32;;
37203;SDS011;23098;48.054;10.636;2023-04-06T06:57:09;14.13;;;9.23;;
37203;SDS011;23098;48.054;10.636;2023-04-06T06:59:35;13.48;;;8.98;;
37203;SDS011;23098;48.054;10.636;2023-04-06T07:02:00;16.17;;;10.15;;
37203;SDS011;23098;48.054;10.636;2023-04-06T07:04:26;14.95;;;10.02;;
37203;SDS011;23098;48.054;10.636;2023-04-06T07:06:51;12.05;;;8.15;;
37203;SDS011;23098;48.054;10.636;2023-04-06T07:09:17;15.50;;;9.45;;
37203;SDS011;23098;48.054;10.636;2023-04-06T07:11:43;14.25;;;9.32;;
37203;SDS011;23098;48.054;10.636;2023-04-06T07:14:09;16.85;;;9.88;;
37203;SDS011;23098;48.054;10.636;2023-04-06T07:16:35;13.55;;;9.00;;
37203;SDS011;23098;48.054;10.636;2023-04-06T07:19:00;12.43;;;8.95;;
37203;SDS011;23098;48.054;10.636;2023-04-06T07:21:26;14.30;;;9.40;;
37203;SDS011;23098;48.054;10.636;2023-04-06T07:23:51;13.93;;;9.02;;
37203;SDS011;23098;48.054;10.636;2023-04-06T07:26:17;12.55;;;7.97;;
37203;SDS011;23098;48.054;10.636;2023-04-06T07:28:43;13.18;;;8.40;;
37203;SDS011;23098;48.054;10.636;2023-04-06T07:31:08;14.20;;;9.70;;
37203;SDS011;23098;48.054;10.636;2023-04-06T07:33:34;15.13;;;8.50;;
37203;SDS011;23098;48.054;10.636;2023-04-06T07:36:00;12.15;;;8.55;;
37203;SDS011;23098;48.054;10.636;2023-04-06T07:38:25;16.35;;;9.45;;
37203;SDS011;23098;48.054;10.636;2023-04-06T07:40:51;14.68;;;9.55;;
37203;SDS011;23098;48.054;10.636;2023-04-06T07:43:16;13.10;;;8.73;;
37203;SDS011;23098;48.054;10.636;2023-04-06T07:45:42;14.02;;;8.82;;
37203;SDS011;23098;48.054;10.636;2023-04-06T07:48:07;15.10;;;8.48;;
37203;SDS011;23098;48.054;10.636;2023-04-06T07:50:33;13.77;;;8.70;;
37203;SDS011;23098;48.054;10.636;2023-04-06T07:52:59;12.32;;;8.80;;
37203;SDS011;23098;48.054;10.636;2023-04-06T07:55:25;12.75;;;8.48;;
37203;SDS011;23098;48.054;10.636;2023-04-06T07:57:51;12.73;;;8.65;;
37203;SDS011;23098;48.054;10.636;2023-04-06T08:00:16;12.63;;;8.20;;
37203;SDS011;23098;48.054;10.636;2023-04-06T08:02:42;13.60;;;8.68;;
37203;SDS011;23098;48.054;10.636;2023-04-06T08:05:08;13.00;;;8.13;;
37203;SDS011;23098;48.054;10.636;2023-04-06T08:07:34;14.52;;;8.43;;
37203;SDS011;23098;48.054;10.636;2023-04-06T08:10:00;14.55;;;7.65;;
37203;SDS011;23098;48.054;10.636;2023-04-06T08:12:26;12.20;;;8.20;;
37203;SDS011;23098;48.054;10.636;2023-04-06T08:14:51;13.40;;;7.35;;
37203;SDS011;23098;48.054;10.636;2023-04-06T08:17:17;12.70;;;7.63;;
37203;SDS011;23098;48.054;10.636;2023-04-06T08:19:43;10.65;;;7.80;;
37203;SDS011;23098;48.054;10.636;2023-04-06T08:22:09;12.82;;;7.28;;
37203;SDS011;23098;48.054;10.636;2023-04-06T08:24:35;11.90;;;7.03;;
37203;SDS011;23098;48.054;10.636;2023-04-06T08:27:02;11.10;;;6.90;;
37203;SDS011;23098;48.054;10.636;2023-04-06T08:29:28;8.93;;;6.28;;
37203;SDS011;23098;48.054;10.636;2023-04-06T08:31:54;9.70;;;6.57;;
37203;SDS011;23098;48.054;10.636;2023-04-06T08:34:20;11.00;;;6.82;;
37203;SDS011;23098;48.054;10.636;2023-04-06T08:36:46;9.68;;;6.30;;
37203;SDS011;23098;48.054;10.636;2023-04-06T08:39:12;10.00;;;6.78;;
37203;SDS011;23098;48.054;10.636;2023-04-06T08:41:44;9.60;;;6.60;;
37203;SDS011;23098;48.054;10.636;2023-04-06T08:44:10;9.77;;;6.53;;
37203;SDS011;23098;48.054;10.636;2023-04-06T08:46:37;11.52;;;7.28;;
37203;SDS011;23098;48.054;10.636;2023-04-06T08:49:04;9.63;;;6.25;;
37203;SDS011;23098;48.054;10.636;2023-04-06T08:51:33;10.93;;;6.82;;
37203;SDS011;23098;48.054;10.636;2023-04-06T08:54:04;11.38;;;6.70;;
37203;SDS011;23098;48.054;10.636;2023-04-06T08:56:30;9.65;;;5.95;;
37203;SDS011;23098;48.054;10.636;2023-04-06T08:58:56;9.60;;;5.05;;
37203;SDS011;23098;48.054;10.636;2023-04-06T09:01:23;9.48;;;6.72;;
37203;SDS011;23098;48.054;10.636;2023-04-06T09:03:55;11.73;;;6.32;;
37203;SDS011;23098;48.054;10.636;2023-04-06T09:06:22;10.68;;;6.70;;
37203;SDS011;23098;48.054;10.636;2023-04-06T09:08:47;8.55;;;5.45;;
37203;SDS011;23098;48.054;10.636;2023-04-06T09:11:14;12.07;;;6.95;;
37203;SDS011;23098;48.054;10.636;2023-04-06T09:13:44;9.60;;;6.30;;
37203;SDS011;23098;48.054;10.636;2023-04-06T09:16:22;12.98;;;7.18;;
37203;SDS011;23098;48.054;10.636;2023-04-06T09:18:48;9.10;;;6.35;;
37203;SDS011;23098;48.054;10.636;2023-04-06T09:21:18;11.77;;;6.30;;
37203;SDS011;23098;48.054;10.636;2023-04-06T09:23:44;10.65;;;6.53;;
37203;SDS011;23098;48.054;10.636;2023-04-06T09:26:11;13.45;;;6.57;;
37203;SDS011;23098;48.054;10.636;2023-04-06T09:28:46;10.18;;;6.60;;
37203;SDS011;23098;48.054;10.636;2023-04-06T09:31:12;10.27;;;6.28;;
37203;SDS011;23098;48.054;10.636;2023-04-06T09:33:40;11.35;;;7.28;;
37203;SDS011;23098;48.054;10.636;2023-04-06T09:36:07;10.02;;;6.25;;
37203;SDS011;23098;48.054;10.636;2023-04-06T09:38:36;10.65;;;6.47;;
37203;SDS011;23098;48.054;10.636;2023-04-06T09:41:02;9.35;;;5.78;;
37203;SDS011;23098;48.054;10.636;2023-04-06T09:43:28;12.35;;;6.68;;
37203;SDS011;23098;48.054;10.636;2023-04-06T09:45:55;11.38;;;6.45;;
37203;SDS011;23098;48.054;10.636;2023-04-06T09:48:21;9.18;;;6.45;;
37203;SDS011;23098;48.054;10.636;2023-04-06T09:50:49;7.78;;;4.82;;
37203;SDS011;23098;48.054;10.636;2023-04-06T09:53:21;8.55;;;6.25;;
37203;SDS011;23098;48.054;10.636;2023-04-06T09:55:51;8.45;;;5.90;;
37203;SDS011;23098;48.054;10.636;2023-04-06T09:58:23;7.80;;;5.90;;
37203;SDS011;23098;48.054;10.636;2023-04-06T10:00:57;6.55;;;5.00;;
37203;SDS011;23098;48.054;10.636;2023-04-06T10:06:28;5.73;;;4.43;;
37203;SDS011;23098;48.054;10.636;2023-04-06T10:08:58;6.75;;;4.68;;
37203;SDS011;23098;48.054;10.636;2023-04-06T10:11:26;7.80;;;5.45;;
37203;SDS011;23098;48.054;10.636;2023-04-06T10:13:53;7.90;;;3.60;;
37203;SDS011;23098;48.054;10.636;2023-04-06T10:16:20;5.57;;;3.90;;
37203;SDS011;23098;48.054;10.636;2023-04-06T10:18:49;7.68;;;5.32;;
37203;SDS011;23098;48.054;10.636;2023-04-06T10:21:23;7.43;;;5.63;;
37203;SDS011;23098;48.054;10.636;2023-04-06T10:24:02;9.18;;;5.78;;
37203;SDS011;23098;48.054;10.636;2023-04-06T10:29:45;7.38;;;5.68;;
37203;SDS011;23098;48.054;10.636;2023-04-06T10:32:13;6.57;;;5.00;;
37203;SDS011;23098;48.054;10.636;2023-04-06T10:34:39;5.35;;;4.22;;
37203;SDS011;23098;48.054;10.636;2023-04-06T10:37:14;7.20;;;5.13;;
37203;SDS011;23098;48.054;10.636;2023-04-06T10:39:47;11.43;;;5.65;;
37203;SDS011;23098;48.054;10.636;2023-04-06T10:42:23;7.25;;;5.10;;
37203;SDS011;23098;48.054;10.636;2023-04-06T10:44:50;8.02;;;5.90;;
37203;SDS011;23098;48.054;10.636;2023-04-06T10:47:16;9.25;;;6.10;;
37203;SDS011;23098;48.054;10.636;2023-04-06T10:49:44;9.68;;;5.55;;
37203;SDS011;23098;48.054;10.636;2023-04-06T10:52:10;8.10;;;5.65;;
37203;SDS011;23098;48.054;10.636;2023-04-06T10:54:36;10.20;;;5.97;;
37203;SDS011;23098;48.054;10.636;2023-04-06T10:57:08;7.63;;;5.38;;
37203;SDS011;23098;48.054;10.636;2023-04-06T10:59:35;6.82;;;4.72;;
37203;SDS011;23098;48.054;10.636;2023-04-06T11:02:00;10.82;;;5.18;;
37203;SDS011;23098;48.054;10.636;2023-04-06T11:06:55;6.70;;;4.88;;
37203;SDS011;23098;48.054;10.636;2023-04-06T11:09:23;8.35;;;5.18;;
37203;SDS011;23098;48.054;10.636;2023-04-06T11:11:52;7.45;;;5.25;;
37203;SDS011;23098;48.054;10.636;2023-04-06T11:14:18;8.57;;;5.50;;
37203;SDS011;23098;48.054;10.636;2023-04-06T11:16:45;7.78;;;6.00;;
37203;SDS011;23098;48.054;10.636;2023-04-06T11:19:15;7.65;;;5.10;;
37203;SDS011;23098;48.054;10.636;2023-04-06T11:21:41;7.35;;;5.55;;
37203;SDS011;23098;48.054;10.636;2023-04-06T11:24:17;9.00;;;5.50;;
37203;SDS011;23098;48.054;10.636;2023-04-06T11:29:17;7.13;;;5.78;;
37203;SDS011;23098;48.054;10.636;2023-04-06T11:31:52;8.48;;;5.95;;
37203;SDS011;23098;48.054;10.636;2023-04-06T11:34:20;7.47;;;5.57;;
37203;SDS011;23098;48.054;10.636;2023-04-06T11:36:47;8.40;;;5.40;;
37203;SDS011;23098;48.054;10.636;2023-04-06T11:39:23;7.25;;;4.90;;
37203;SDS011;23098;48.054;10.636;2023-04-06T11:41:51;9.30;;;5.07;;
37203;SDS011;23098;48.054;10.636;2023-04-06T11:44:34;10.30;;;5.32;;
37203;SDS011;23098;48.054;10.636;2023-04-06T11:47:05;9.93;;;6.03;;
37203;SDS011;23098;48.054;10.636;2023-04-06T11:49:33;7.55;;;5.45;;
37203;SDS011;23098;48.054;10.636;2023-04-06T11:52:02;10.43;;;6.40;;
37203;SDS011;23098;48.054;10.636;2023-04-06T11:54:39;20.70;;;5.90;;
37203;SDS011;23098;48.054;10.636;2023-04-06T11:57:05;28.55;;;5.80;;
37203;SDS011;23098;48.054;10.636;2023-04-06T11:59:32;27.85;;;5.88;;
37203;SDS011;23098;48.054;10.636;2023-04-06T12:01:58;13.93;;;5.68;;
37203;SDS011;23098;48.054;10.636;2023-04-06T12:04:24;8.35;;;5.70;;
37203;SDS011;23098;48.054;10.636;2023-04-06T12:06:49;9.27;;;6.00;;
37203;SDS011;23098;48.054;10.636;2023-04-06T12:09:16;9.23;;;5.68;;
37203;SDS011;23098;48.054;10.636;2023-04-06T12:11:42;6.93;;;5.40;;
37203;SDS011;23098;48.054;10.636;2023-04-06T12:14:08;7.30;;;5.05;;
37203;SDS011;23098;48.054;10.636;2023-04-06T12:16:34;6.90;;;5.47;;
37203;SDS011;23098;48.054;10.636;2023-04-06T12:19:00;8.52;;;5.22;;
37203;SDS011;23098;48.054;10.636;2023-04-06T12:21:27;7.32;;;5.72;;
37203;SDS011;23098;48.054;10.636;2023-04-06T12:23:53;7.68;;;6.05;;
37203;SDS011;23098;48.054;10.636;2023-04-06T12:26:19;8.25;;;5.88;;
37203;SDS011;23098;48.054;10.636;2023-04-06T12:28:46;8.73;;;6.10;;
37203;SDS011;23098;48.054;10.636;2023-04-06T12:31:16;6.72;;;5.85;;
37203;SDS011;23098;48.054;10.636;2023-04-06T12:33:42;9.57;;;6.15;;
37203;SDS011;23098;48.054;10.636;2023-04-06T12:36:12;8.68;;;6.07;;
37203;SDS011;23098;48.054;10.636;2023-04-06T12:38:39;10.13;;;6.30;;
37203;SDS011;23098;48.054;10.636;2023-04-06T12:41:05;6.95;;;5.85;;
37203;SDS011;23098;48.054;10.636;2023-04-06T12:43:31;12.60;;;6.32;;
37203;SDS011;23098;48.054;10.636;2023-04-06T12:45:57;9.35;;;6.72;;
37203;SDS011;23098;48.054;10.636;2023-04-06T12:48:23;9.73;;;6.68;;
37203;SDS011;23098;48.054;10.636;2023-04-06T12:50:57;6.97;;;5.90;;
37203;SDS011;23098;48.054;10.636;2023-04-06T12:53:24;8.02;;;6.03;;
37203;SDS011;23098;48.054;10.636;2023-04-06T12:55:49;7.28;;;5.85;;
37203;SDS011;23098;48.054;10.636;2023-04-06T12:58:15;7.97;;;5.70;;
37203;SDS011;23098;48.054;10.636;2023-04-06T13:00:42;11.18;;;6.43;;
37203;SDS011;23098;48.054;10.636;2023-04-06T13:03:07;7.22;;;5.53;;
37203;SDS011;23098;48.054;10.636;2023-04-06T13:05:33;7.82;;;5.55;;
37203;SDS011;23098;48.054;10.636;2023-04-06T13:07:58;7.82;;;5.85;;
37203;SDS011;23098;48.054;10.636;2023-04-06T13:10:24;8.20;;;6.28;;
37203;SDS011;23098;48.054;10.636;2023-04-06T13:12:50;8.68;;;6.25;;
37203;SDS011;23098;48.054;10.636;2023-04-06T13:15:15;6.63;;;5.32;;
37203;SDS011;23098;48.054;10.636;2023-04-06T13:17:41;6.60;;;5.57;;
37203;SDS011;23098;48.054;10.636;2023-04-06T13:20:08;10.95;;;5.88;;
37203;SDS011;23098;48.054;10.636;2023-04-06T13:22:34;6.15;;;4.93;;
37203;SDS011;23098;48.054;10.636;2023-04-06T13:25:00;8.15;;;5.18;;
37203;SDS011;23098;48.054;10.636;2023-04-06T13:27:25;7.40;;;5.57;;
37203;SDS011;23098;48.054;10.636;2023-04-06T13:29:52;7.82;;;5.55;;
37203;SDS011;23098;48.054;10.636;2023-04-06T13:32:18;6.65;;;5.80;;
37203;SDS011;23098;48.054;10.636;2023-04-06T13:34:43;6.78;;;5.60;;
37203;SDS011;23098;48.054;10.636;2023-04-06T13:37:11;7.07;;;5.45;;
37203;SDS011;23098;48.054;10.636;2023-04-06T13:39:37;7.82;;;5.65;;
37203;SDS011;23098;48.054;10.636;2023-04-06T13:42:04;7.40;;;5.20;;
37203;SDS011;23098;48.054;10.636;2023-04-06T13:44:50;9.05;;;5.25;;
37203;SDS011;23098;48.054;10.636;2023-04-06T13:47:16;8.13;;;5.10;;
37203;SDS011;23098;48.054;10.636;2023-04-06T13:49:42;6.18;;;5.28;;
37203;SDS011;23098;48.054;10.636;2023-04-06T13:52:08;7.53;;;5.10;;
37203;SDS011;23098;48.054;10.636;2023-04-06T13:54:35;6.68;;;5.30;;
37203;SDS011;23098;48.054;10.636;2023-04-06T13:57:01;7.63;;;5.65;;
37203;SDS011;23098;48.054;10.636;2023-04-06T13:59:45;8.95;;;6.13;;
37203;SDS011;23098;48.054;10.636;2023-04-06T14:02:10;6.40;;;5.30;;
37203;SDS011;23098;48.054;10.636;2023-04-06T14:04:36;6.22;;;4.82;;
37203;SDS011;23098;48.054;10.636;2023-04-06T14:07:02;7.15;;;4.82;;
37203;SDS011;23098;48.054;10.636;2023-04-06T14:09:28;9.20;;;4.55;;
37203;SDS011;23098;48.054;10.636;2023-04-06T14:11:54;9.52;;;5.40;;
37203;SDS011;23098;48.054;10.636;2023-04-06T14:14:21;6.22;;;4.78;;
37203;SDS011;23098;48.054;10.636;2023-04-06T14:16:48;5.43;;;4.70;;
37203;SDS011;23098;48.054;10.636;2023-04-06T14:19:14;8.60;;;5.55;;
37203;SDS011;23098;48.054;10.636;2023-04-06T14:21:42;5.90;;;5.07;;
37203;SDS011;23098;48.054;10.636;2023-04-06T14:24:08;6.75;;;4.70;;
37203;SDS011;23098;48.054;10.636;2023-04-06T14:26:37;4.97;;;4.47;;
37203;SDS011;23098;48.054;10.636;2023-04-06T14:29:04;6.30;;;4.80;;